• Join FlightAware (Why Join?)
  • Login
  • US Flag 
10:32PM EDT


 

Airport Tracker/Info


-or-


 

Live Flight TrackerFlight Track Log ✈ GJS6206 ✈ 19-Apr-2013 ✈ KDTW - KSTL

Flight Track Log - Related Links

Times and Time Zones

All times are in EDT time to prevent confusion due to time zone crossing. See the GJS6206 flight status page for this flight to view local times or setup timezone preferences in your user account.

Time Position Orientation Groundspeed Altitude Reporting Facility
EDT Latitude Longitude Course Direction KTS MPH feet Rate Location/Type
08:09PM 42.2017 -83.3544 207° Southwest 150 173 2,000  Level FAA TRACON SMA TRACON (SMA)
08:09PM 42.1886 -83.3633 207° Southwest 150 173 3,200 3,000 Climbing FAA TRACON SMA TRACON (SMA)
08:09PM 42.1764 -83.3714 206° Southwest 165 190 4,000 3,120 Climbing FAA TRACON SMA TRACON (SMA)
08:10PM 42.1600 -83.3808 203° Southwest 179 206 5,300 3,900 Climbing FAA TRACON SMA TRACON (SMA)
08:10PM 42.1442 -83.3900 203° Southwest 180 207 6,600 3,000 Climbing FAA TRACON SMA TRACON (SMA)
08:10PM 42.1292 -83.3997 206° Southwest 202 232 7,300 1,800 Climbing FAA TRACON SMA TRACON (SMA)
08:11PM 42.1114 -83.4128 209° Southwest 233 268 7,800 1,740 Climbing FAA TRACON SMA TRACON (SMA)
08:11PM 42.0908 -83.4281 209° Southwest 239 275 8,500 1,800 Climbing FAA TRACON SMA TRACON (SMA)
08:11PM 42.0722 -83.4411 208° Southwest 251 289 9,000 1,920 Climbing FAA TRACON SMA TRACON (SMA)
08:12PM 42.0494 -83.4561 206° Southwest 253 291 9,800 1,800 Climbing FAA TRACON SMA TRACON (SMA)
08:12PM 42.0294 -83.4692 206° Southwest 265 305 10,200 1,380 Climbing FAA TRACON SMA TRACON (SMA)
08:12PM 42.0086 -83.4869 212° Southwest 271 312 10,700 1,620 Climbing FAA TRACON SMA TRACON (SMA)
08:13PM 41.9847 -83.5089 214° Southwest 279 321 11,300 1,620 Climbing FAA TRACON SMA TRACON (SMA)
08:13PM 41.9661 -83.5267 215° Southwest 289 333 11,800 1,620 Climbing FAA TRACON SMA TRACON (SMA)
08:13PM 41.9419 -83.5500 216° Southwest 303 349 12,400 1,800 Climbing FAA TRACON SMA TRACON (SMA)
08:14PM 41.9203 -83.5697 214° Southwest 302 348 13,000 2,220 Climbing FAA TRACON SMA TRACON (SMA)
08:14PM 41.8931 -83.5950 215° Southwest 308 354 13,900 2,400 Climbing FAA TRACON SMA TRACON (SMA)
08:14PM 41.8708 -83.6156 215° Southwest 311 358 14,600 2,220 Climbing FAA TRACON SMA TRACON (SMA)
08:15PM 41.8489 -83.6367 216° Southwest 313 360 15,400 2,520 Climbing FAA TRACON SMA TRACON (SMA)
08:15PM 41.8214 -83.6622 215° Southwest 312 359 16,300 2,520 Climbing FAA TRACON SMA TRACON (SMA)
08:15PM 41.7994 -83.6825 215° Southwest 311 358 17,100 2,220 Climbing FAA TRACON SMA TRACON (SMA)
08:16PM 41.7778 -83.7022 214° Southwest 309 356 17,800 2,520 Climbing FAA TRACON SMA TRACON (SMA)
08:16PM 41.7508 -83.7281 216° Southwest 308 354 18,800 2,220 Climbing FAA TRACON SMA TRACON (SMA)
08:16PM 41.7289 -83.7483 215° Southwest 310 357 19,300 1,500 Climbing FAA TRACON SMA TRACON (SMA)
08:17PM 41.7069 -83.7694 216° Southwest 314 361 19,800 1,620 Climbing FAA TRACON SMA TRACON (SMA)
08:17PM 41.6781 -83.7953 214° Southwest 322 371 20,400 1,500 Climbing FAA TRACON SMA TRACON (SMA)
08:17PM 41.6539 -83.8147 211° Southwest 326 375 20,800 1,260 Climbing FAA TRACON SMA TRACON (SMA)
08:18PM 41.6294 -83.8344 211° Southwest 330 380 21,300 1,560 Climbing FAA TRACON SMA TRACON (SMA)
08:18PM 41.5983 -83.8581 210° Southwest 333 383 21,900 1,500 Climbing FAA TRACON SMA TRACON (SMA)
08:18PM 41.5797 -83.8889 231° Southwest 359 413 22,300 1,320 Climbing FAA TRACON SMA TRACON (SMA)
08:19PM 41.5683 -83.9231 246° West 357 411 22,800 1,500 Climbing FAA TRACON SMA TRACON (SMA)
08:19PM 41.5642 -83.9639 262° West 372 428 23,300 1,500 Climbing FAA TRACON SMA TRACON (SMA)
08:19PM 41.5597 -84.0133 263° West 356 410 23,800 780 Climbing FAA TRACON SMA TRACON (SMA)
08:20PM 41.5581 -84.0333 264° West 354 407 24,100 1,380 Climbing FAA TRACON SMA TRACON (SMA)
08:20PM 41.5503 -84.1433 265° West 337 388 25,300 1,560 Climbing Cleveland Center
08:23PM 41.5314 -84.4189 265° West 350 403 28,300 1,380 Climbing Chicago Center
08:24PM 41.4975 -84.5628 253° West 339 390 29,800 1,140 Climbing Chicago Center
08:25PM 41.4689 -84.6847 253° West 343 395 30,700 780 Climbing Chicago Center
08:26PM 41.4383 -84.8108 252° West 355 409 31,500 720 Climbing Chicago Center
08:27PM 41.4081 -84.9403 253° West 364 419 32,300 840 Climbing Chicago Center
08:28PM 41.3772 -85.0700 252° West 366 421 33,300 960 Climbing Chicago Center
08:29PM 41.3456 -85.1981 252° West 363 418 34,300 960 Climbing Chicago Center
08:30PM 41.3144 -85.3239 252° West 358 412 35,300 780 Climbing Chicago Center
08:31PM 41.2847 -85.4486 252° West 354 407 36,000 300 Climbing Chicago Center
08:32PM 41.2467 -85.6006 252° West 360 414 36,000  Level Chicago Center
08:33PM 41.2139 -85.7339 252° West 374 430 36,000  Level Chicago Center
08:34PM 41.1800 -85.8711 252° West 390 449 36,000  Level Chicago Center
08:35PM 41.1450 -86.0100 252° West 395 455 36,000  Level Chicago Center
08:36PM 41.1097 -86.1522 252° West 405 466 36,000  Level Chicago Center
08:37PM 41.0731 -86.2956 251° West 410 472 36,000  Level Chicago Center
08:38PM 41.0367 -86.4403 252° West 412 474 36,000  Level Chicago Center
08:39PM 40.9922 -86.6125 251° West 413 475 36,000  Level Chicago Center
08:40PM 40.9600 -86.7381 251° West 408 470 36,000  Level Chicago Center
08:41PM 40.9161 -86.9094 251° West 411 473 36,000  Level Chicago Center
08:42PM 40.8797 -87.0517 251° West 410 472 36,000  Level Chicago Center
08:43PM 40.8419 -87.1947 251° West 412 474 36,000  Level Chicago Center
08:44PM 40.8033 -87.3400 251° West 418 481 36,000  Level Chicago Center
08:45PM 40.7647 -87.4853 251° West 419 482 36,000  Level Chicago Center
08:46PM 40.7258 -87.6306 251° West 420 483 36,000  Level Chicago Center
08:47PM 40.6869 -87.7756 251° West 420 483 36,000  Level Chicago Center
08:48PM 40.6394 -87.9506 250° West 422 486 36,000 -480 Level Chicago Center
08:49PM 40.5694 -88.0758 234° Southwest 428 493 35,100 -960 Descending Chicago Center
08:51PM 40.4633 -88.1606 211° Southwest 443 510 34,100 -1,020 Descending Chicago Center
08:52PM 40.3589 -88.2381 209° Southwest 435 501 33,100 -960 Descending Chicago Center
08:53PM 40.2558 -88.3133 209° Southwest 426 490 32,200 -1,020 Descending Chicago Center
08:54PM 40.1453 -88.3953 210° Southwest 432 497 31,100 -1,140 Descending Chicago Center
08:54PM 40.0808 -88.4433 210° Southwest 431 496 30,400 -1,380 Descending Kansas City Center
08:55PM 39.9758 -88.5200 209° Southwest 430 495 28,900 -1,200 Descending Kansas City Center
08:56PM 39.8708 -88.5989 210° Southwest 432 497 28,000 -1,260 Descending Kansas City Center
08:57PM 39.7828 -88.7003 222° Southwest 426 490 26,400 -1,680 Descending Kansas City Center
08:58PM 39.6986 -88.7964 221° Southwest 409 471 24,600 -1,740 Descending Kansas City Center
08:59PM 39.6144 -88.8903 221° Southwest 400 460 22,900 -1,740 Descending Kansas City Center
09:00PM 39.5286 -88.9894 222° Southwest 408 470 21,100 -1,920 Descending Kansas City Center
09:01PM 39.4264 -89.1069 222° Southwest 409 471 19,000 -1,860 Descending Kansas City Center
09:02PM 39.3531 -89.1908 222° Southwest 398 458 17,400 -1,620 Descending Kansas City Center
09:03PM 39.2750 -89.2803 222° Southwest 382 440 15,800 -1,560 Descending Kansas City Center
09:04PM 39.1969 -89.3678 221° Southwest 374 430 14,300 -1,740 Descending Kansas City Center
09:05PM 39.1375 -89.3792 188° South 370 426 13,100 -1,800 Descending FAA TRACON SMA TRACON (SMA)
09:05PM 39.1061 -89.4114 219° Southwest 369 425 12,600 -1,440 Descending FAA TRACON SMA TRACON (SMA)
09:06PM 39.0825 -89.4375 221° Southwest 366 421 12,100 -1,500 Descending FAA TRACON SMA TRACON (SMA)
09:06PM 39.0575 -89.4631 218° Southwest 365 420 11,700 -1,140 Descending FAA TRACON SMA TRACON (SMA)
09:06PM 39.0347 -89.4894 222° Southwest 363 418 11,400 -1,080 Descending FAA TRACON SMA TRACON (SMA)
09:07PM 39.0069 -89.5233 223° Southwest 360 414 11,000 -600 Descending FAA TRACON SMA TRACON (SMA)
09:07PM 38.9883 -89.5536 232° Southwest 355 409 11,000 -180 Level FAA TRACON SMA TRACON (SMA)
09:07PM 38.9778 -89.5850 247° West 330 380 10,900 -900 Descending FAA TRACON SMA TRACON (SMA)
09:08PM 38.9597 -89.6175 234° Southwest 296 341 10,400 -1,380 Descending FAA TRACON SMA TRACON (SMA)
09:08PM 38.9417 -89.6392 223° Southwest 288 331 10,000 -1,380 Descending FAA TRACON SMA TRACON (SMA)
09:08PM 38.9272 -89.6614 230° Southwest 275 316 9,500 -2,100 Descending FAA TRACON SMA TRACON (SMA)
09:09PM 38.9100 -89.6894 232° Southwest 259 298 8,600 -2,100 Descending FAA TRACON SMA TRACON (SMA)
09:09PM 38.8978 -89.7119 235° Southwest 254 292 8,100 -1,500 Descending FAA TRACON SMA TRACON (SMA)
09:09PM 38.8839 -89.7328 229° Southwest 252 290 7,600 -1,800 Descending FAA TRACON SMA TRACON (SMA)
09:10PM 38.8700 -89.7600 237° Southwest 243 280 6,900 -1,980 Descending FAA TRACON SMA TRACON (SMA)
09:10PM 38.8594 -89.7822 239° Southwest 239 275 6,300 -1,800 Descending FAA TRACON SMA TRACON (SMA)
09:10PM 38.8489 -89.8044 239° Southwest 242 278 5,700 -1,980 Descending FAA TRACON SMA TRACON (SMA)
09:11PM 38.8350 -89.8319 237° Southwest 238 274 5,000 -1,080 Descending FAA TRACON SMA TRACON (SMA)
09:11PM 38.8258 -89.8550 243° Southwest 236 272 5,000 -180 Level FAA TRACON SMA TRACON (SMA)
09:11PM 38.8161 -89.8778 241° Southwest 236 272 4,900 -180 Descending FAA TRACON SMA TRACON (SMA)
09:12PM 38.8047 -89.9067 243° Southwest 238 274 4,900 -180 Level FAA TRACON SMA TRACON (SMA)
09:12PM 38.7953 -89.9303 243° Southwest 240 276 4,800 -900 Descending FAA TRACON SMA TRACON (SMA)
09:12PM 38.7864 -89.9531 243° Southwest 236 272 4,300 -1,680 Descending FAA TRACON SMA TRACON (SMA)
09:13PM 38.7753 -89.9814 243° Southwest 229 264 3,700 -1,680 Descending FAA TRACON SMA TRACON (SMA)
09:13PM 38.7664 -90.0044 244° Southwest 231 266 3,200 -900 Descending FAA TRACON SMA TRACON (SMA)
09:13PM 38.7581 -90.0267 244° Southwest 231 266 3,100 -480 Descending FAA TRACON SMA TRACON (SMA)
09:14PM 38.7503 -90.0558 251° West 227 261 2,900 -300 Descending FAA TRACON SMA TRACON (SMA)
09:14PM 38.7447 -90.0789 253° West 223 257 2,900 -300 Level FAA TRACON SMA TRACON (SMA)
09:14PM 38.7386 -90.1014 251° West 217 250 2,700 -300 Descending FAA TRACON SMA TRACON (SMA)
09:15PM 38.7283 -90.1278 243° Southwest 216 249 2,700 -180 Level FAA TRACON SMA TRACON (SMA)
09:15PM 38.7186 -90.1472 237° Southwest 212 244 2,600 -480 Descending FAA TRACON SMA TRACON (SMA)
09:15PM 38.7083 -90.1647 233° Southwest 202 232 2,400 -600 Descending FAA TRACON SMA TRACON (SMA)
09:16PM 38.7017 -90.1861 248° West 176 203 2,200 -600 Descending FAA TRACON SMA TRACON (SMA)
09:16PM 38.7008 -90.2017 266° West 152 175 2,000 -480 Descending FAA TRACON SMA TRACON (SMA)
09:16PM 38.7025 -90.2147 279° West 128 147 1,900 -600 Descending FAA TRACON SMA TRACON (SMA)
09:17PM 38.7069 -90.2297 291° West 117 135 1,600 -780 Descending FAA TRACON SMA TRACON (SMA)
09:17PM 38.7125 -90.2411 302° West 119 137 1,400 -600 Descending FAA TRACON SMA TRACON (SMA)
09:17PM 38.7181 -90.2522 303° West 121 139 1,200 -780 Descending FAA TRACON SMA TRACON (SMA)
09:18PM 38.7247 -90.2664 301° West 122 140 900 -780 Descending FAA TRACON SMA TRACON (SMA)
09:18PM 38.7303 -90.2775 303° West 121 139 700 -660 Descending FAA TRACON SMA TRACON (SMA)
09:21PM 38.7333 -90.3667 284° West  Level FlightAware Approximate